CheckWX is a tool to help pilots better visualize weather data.  It is not intended as a substitute for an official pre-flight weather briefing.

05:04:20 UTC

7W4 METAR
Lake Anna Airport
Bumpass, Virginia, USA
Current

29 mins ago

K7W4 260435Z AUTO 29005KT 10SM CLR 15/14 A3017 RMK AO1 T01470140
Observed
Aug-26 @ 04:35 UTC
Wind
  • 290° at 5 KTS
Visibility
10 SM
Flight Rules
VFR
Cloud Levels
  • Clear skies
Temperature
15°C / 59°F
Dewpoint
14°C / 57°F
Humidity
94%
Altimeter
30.17" Hg
Pressure
1021.72 hPa
Previous

49 mins ago

K7W4 260415Z AUTO 00000KT 10SM CLR 15/14 A3018 RMK AO1 T01500143
Observed
Aug-26 @ 04:15 UTC
Visibility
10 SM
Flight Rules
VFR
Cloud Levels
  • Clear skies
Temperature
15°C / 59°F
Dewpoint
14°C / 57°F
Humidity
94%
Altimeter
30.18" Hg
Pressure
1022.02 hPa
Previous

1 hour ago

K7W4 260355Z AUTO 30004KT 10SM CLR 15/15 A3018 RMK AO1 T01540148
Observed
Aug-26 @ 03:55 UTC
Wind
  • 300° at 4 KTS
Visibility
10 SM
Flight Rules
VFR
Cloud Levels
  • Clear skies
Temperature
15°C / 59°F
Dewpoint
15°C / 59°F
Humidity
100%
Altimeter
30.18" Hg
Pressure
1022.02 hPa